Caroline — WDF4874 — position and weather

sailwx.info

Track history (hours):
 
Tides and Currents Weather Stations Pressure Air Temp Water Temp Dewpoint Dewpoint Depression Visibility Wind Speed Wind Dir Waves Ship Positions

Caroline

Owner: Canal Barge Company, Inc., Belle Chasse, LA. More information available from US FCC via Universal Licensing System and Coast Guard Vessel Documentation Center.

Last reported at 2018-Feb-25 20:35 UTC. Time now 2018-Feb-26 01:58 UTC.
Position N 29°22' W 094°48'.

Length 25 m.

Type: Towing. MMSI: 367456750.

Date/timePositionNaut miles runAvg speedWind from/ knotsBaromVisibWave heightAir tempDewpointWater temp
2018-Feb-25 20:35N 29°22' W 094°48'4 3.7
2018-Feb-25 19:23N 29°26' W 094°50'2 4.8
2018-Feb-25 19:00N 29°28' W 094°51'2 5.0
2018-Feb-25 18:30N 29°30' W 094°53'3 5.2
2018-Feb-25 18:00N 29°32' W 094°54'3 5.5
2018-Feb-25 17:30N 29°35' W 094°56'3 5.6
2018-Feb-25 17:00N 29°37' W 094°58'3 6.0
2018-Feb-25 16:30N 29°40' W 094°59'3 5.7
2018-Feb-25 16:00N 29°42' W 095°01'2 4.8
2018-Feb-25 15:30N 29°44' W 095°03'0 0.6
2018-Feb-25 15:00N 29°44' W 095°03'0 0.0
2018-Feb-25 10:29N 29°44' W 095°03'1 2.2
2018-Feb-25 09:54N 29°44' W 095°02'2 4.0
2018-Feb-25 09:30N 29°42' W 095°01'1 2.2
2018-Feb-25 08:59N 29°42' W 095°03'0 0.1
2018-Feb-25 08:30N 29°42' W 095°03'0 0.0
2018-Feb-25 08:00N 29°42' W 095°03'0 0.4
2018-Feb-25 07:30N 29°43' W 095°03'2 4.3
2018-Feb-25 07:00N 29°42' W 095°00'3 5.5
2018-Feb-25 06:30N 29°40' W 094°58'3 5.6
2018-Feb-25 06:00N 29°37' W 094°57'3 6.0
2018-Feb-25 05:30N 29°35' W 094°56'3 6.2
2018-Feb-25 05:00N 29°32' W 094°54'9 0.3
2018-Feb-23 22:12N 29°23' W 094°53'0 0.0
2018-Feb-23 18:48N 29°23' W 094°53'0 0.0
2018-Feb-23 18:27N 29°23' W 094°53'0 0.0
2018-Feb-23 17:55N 29°23' W 094°53'0 0.0
2018-Feb-23 11:35N 29°23' W 094°53'0 0.0
2018-Feb-23 11:14N 29°23' W 094°53'0 0.0
2018-Feb-23 10:58N 29°23' W 094°53'0 0.0
2018-Feb-23 10:30N 29°23' W 094°53'0 0.0
2018-Feb-23 10:00N 29°23' W 094°53'0 0.0
2018-Feb-23 09:24N 29°23' W 094°53'0 0.0
2018-Feb-23 08:52N 29°23' W 094°53'0 0.0
2018-Feb-23 07:32N 29°23' W 094°53'0 0.0
2018-Feb-23 07:12N 29°23' W 094°53'0 0.0
2018-Feb-23 06:56N 29°23' W 094°53'0 0.0
2018-Feb-23 04:56N 29°23' W 094°53'22 0.6
2018-Feb-21 16:37N 29°31' W 094°31'1 3.9
2018-Feb-21 16:25N 29°31' W 094°30'1 3.4
2018-Feb-21 16:00N 29°32' W 094°29'0 0.0
2018-Feb-21 15:25N 29°32' W 094°29'1 1.0
2018-Feb-21 14:50N 29°33' W 094°28'1 3.6
2018-Feb-21 14:26N 29°34' W 094°27'2 3.2
2018-Feb-21 13:56N 29°34' W 094°25'2 3.7
2018-Feb-21 13:30N 29°36' W 094°25'2 2.9
2018-Feb-21 12:58N 29°36' W 094°23'1 3.0
2018-Feb-21 12:30N 29°36' W 094°22'0 0.0
2018-Feb-21 12:00N 29°36' W 094°22'0 0.0
2018-Feb-21 11:28N 29°36' W 094°22'0 0.0
2018-Feb-21 11:00N 29°36' W 094°22'0 0.0
2018-Feb-21 10:30N 29°36' W 094°22'0 0.0
2018-Feb-21 09:58N 29°36' W 094°22'0 0.0
2018-Feb-21 09:28N 29°36' W 094°22'0 0.0
2018-Feb-21 08:54N 29°36' W 094°22'0 0.0
2018-Feb-21 08:30N 29°36' W 094°22'0 0.0
2018-Feb-21 08:00N 29°36' W 094°22'0 0.0
2018-Feb-21 07:30N 29°36' W 094°22'0 0.0
2018-Feb-21 06:59N 29°36' W 094°22'0 0.0
2018-Feb-21 06:30N 29°36' W 094°22'0 0.0
2018-Feb-21 05:59N 29°36' W 094°22'0 0.5
2018-Feb-21 05:25N 29°37' W 094°22'1 3.0
2018-Feb-21 04:58N 29°37' W 094°20'2 3.5
2018-Feb-21 04:30N 29°38' W 094°19'2 3.9
2018-Feb-21 04:00N 29°39' W 094°17'2 3.6
2018-Feb-21 03:31N 29°40' W 094°15'2 3.7
2018-Feb-21 03:00N 29°41' W 094°13'2 3.6
2018-Feb-21 02:31N 29°41' W 094°11'1 1.9
2018-Feb-21 02:00N 29°41' W 094°10'2 4.6
2018-Feb-21 01:30N 29°43' W 094°08'2 4.6
2018-Feb-21 01:00N 29°44' W 094°06'2 4.8
2018-Feb-21 00:31N 29°46' W 094°03'2 4.9
2018-Feb-21 00:00N 29°47' W 094°01'2 4.3
2018-Feb-20 23:31N 29°49' W 093°60'2 4.3
2018-Feb-20 23:01N 29°50' W 093°57'3 5.4
2018-Feb-20 22:30N 29°52' W 093°56'3 5.4
2018-Feb-20 22:00N 29°54' W 093°54'3 6.1
2018-Feb-20 21:30N 29°57' W 093°52'2 4.5
2018-Feb-20 21:00N 29°59' W 093°52'4 7.3
2018-Feb-20 20:30N 29°60' W 093°57'2 4.6
2018-Feb-20 20:01N 30°01' W 093°59'3 5.9
2018-Feb-20 19:31N 30°02' W 094°02'1 1.8
2018-Feb-20 19:01N 30°03' W 094°02'0 0.4
2018-Feb-20 18:30N 30°03' W 094°02'2 3.6
2018-Feb-20 18:00N 30°04' W 094°03'1 1.9
2018-Feb-20 17:30N 30°05' W 094°04'0 0.0
2018-Feb-20 17:01N 30°05' W 094°04'0 0.0
2018-Feb-20 16:30N 30°05' W 094°04'0 0.0
2018-Feb-20 16:00N 30°05' W 094°04'0 0.0
2018-Feb-20 15:31N 30°05' W 094°04'0 0.0
2018-Feb-20 15:00N 30°05' W 094°04'0 0.0
2018-Feb-20 14:31N 30°05' W 094°04'0 0.0
2018-Feb-20 14:00N 30°05' W 094°04'0 0.0
2018-Feb-20 13:31N 30°05' W 094°04'0 0.0
2018-Feb-20 13:00N 30°05' W 094°04'0 0.0
2018-Feb-20 12:29N 30°05' W 094°04'0 0.0
2018-Feb-20 12:00N 30°05' W 094°04'0 0.0
2018-Feb-20 11:30N 30°05' W 094°04'0 0.0
2018-Feb-20 11:00N 30°05' W 094°04'0 0.0
2018-Feb-20 10:30N 30°05' W 094°04'0 0.0
2018-Feb-20 10:00N 30°05' W 094°04'0 0.0
2018-Feb-20 09:31N 30°05' W 094°04'0 0.0
2018-Feb-20 09:01N 30°05' W 094°04'0 0.0
2018-Feb-20 08:30N 30°05' W 094°04'0 0.0
2018-Feb-20 08:00N 30°05' W 094°04'0 0.0
2018-Feb-20 07:30N 30°05' W 094°04'0 0.0
2018-Feb-20 07:01N 30°05' W 094°04'0 0.0
2018-Feb-20 06:31N 30°05' W 094°04'0 0.0
2018-Feb-20 06:00N 30°05' W 094°04'0 0.0
2018-Feb-20 05:30N 30°05' W 094°04'0 0.0
2018-Feb-20 05:01N 30°05' W 094°04'0 0.0
2018-Feb-20 04:30N 30°05' W 094°04'0 0.0
2018-Feb-20 04:01N 30°05' W 094°04'0 0.0
2018-Feb-20 03:31N 30°05' W 094°04'0 0.0
2018-Feb-20 03:01N 30°05' W 094°04'0 0.0
2018-Feb-20 02:30N 30°05' W 094°04'0 0.0
2018-Feb-20 02:01N 30°05' W 094°04'0 0.0
2018-Feb-20 01:31N 30°05' W 094°04'0 0.0
2018-Feb-20 01:00N 30°05' W 094°04'0 0.0
2018-Feb-20 00:30N 30°05' W 094°04'0 0.0
2018-Feb-20 00:01N 30°05' W 094°04'1 1.6
2018-Feb-19 23:30N 30°04' W 094°03'1 1.4
2018-Feb-19 23:00N 30°04' W 094°03'0 0.0
2018-Feb-19 22:30N 30°04' W 094°03'1 2.2
2018-Feb-19 21:59N 30°05' W 094°04'0 0.0
2018-Feb-19 21:31N 30°05' W 094°04'0 0.0
2018-Feb-19 21:00N 30°05' W 094°04'0 0.0
2018-Feb-19 20:30N 30°05' W 094°04'0 0.0
2018-Feb-19 20:00N 30°05' W 094°04'0 0.0
2018-Feb-19 19:30N 30°05' W 094°04'0 0.0
2018-Feb-19 19:00N 30°05' W 094°04'0 0.0
2018-Feb-19 18:31N 30°05' W 094°04'0 0.1
2018-Feb-19 18:01N 30°05' W 094°04'0 0.1
2018-Feb-19 17:30N 30°05' W 094°04'2 4.0
2018-Feb-19 17:01N 30°04' W 094°02'3 5.4
2018-Feb-19 16:30N 30°01' W 094°01'3 5.8
2018-Feb-19 16:01N 30°01' W 093°58'3 5.6
2018-Feb-19 15:30N 29°59' W 093°55'3 6.5
2018-Feb-19 15:00N 29°59' W 093°52'2 5.0
2018-Feb-19 14:31N 29°56' W 093°52'3 6.1
2018-Feb-19 14:00N 29°54' W 093°54'3 6.0
2018-Feb-19 13:30N 29°51' W 093°57'2 4.7
2018-Feb-19 13:00N 29°49' W 093°58'1 2.0
2018-Feb-19 12:30N 29°49' W 093°59'0 0.2
2018-Feb-19 12:01N 29°49' W 093°59'0 0.0
2018-Feb-19 11:30N 29°49' W 093°59'0 0.0
2018-Feb-19 11:00N 29°49' W 093°59'0 0.0
2018-Feb-19 10:30N 29°49' W 093°59'0 0.0
2018-Feb-19 10:00N 29°49' W 093°59'0 0.0
2018-Feb-19 09:29N 29°49' W 093°59'0 0.0
2018-Feb-19 09:00N 29°49' W 093°59'0 0.0
2018-Feb-19 08:30N 29°49' W 093°59'0 0.0
2018-Feb-19 08:00N 29°49' W 093°59'0 0.0
2018-Feb-19 07:30N 29°49' W 093°59'0 0.0
2018-Feb-19 07:00N 29°49' W 093°59'0 0.0
2018-Feb-19 06:30N 29°49' W 093°59'0 0.0
2018-Feb-19 06:01N 29°49' W 093°59'0 0.0
2018-Feb-19 05:30N 29°49' W 093°59'0 0.0
2018-Feb-19 05:00N 29°49' W 093°59'0 0.0
2018-Feb-19 04:30N 29°49' W 093°59'0 0.0
2018-Feb-19 03:59N 29°49' W 093°59'0 0.0
2018-Feb-19 03:30N 29°49' W 093°59'0 0.0
2018-Feb-19 03:01N 29°49' W 093°59'0 0.0
2018-Feb-19 02:29N 29°49' W 093°59'0 0.0
2018-Feb-19 02:00N 29°49' W 093°59'0 0.0
2018-Feb-19 01:30N 29°49' W 093°59'0 0.0
2018-Feb-19 01:00N 29°49' W 093°59'0 0.0
2018-Feb-19 00:30N 29°49' W 093°59'0 0.0
2018-Feb-19 00:00N 29°49' W 093°59'0 0.0
2018-Feb-18 23:30N 29°49' W 093°59'0 0.0
2018-Feb-18 23:00N 29°49' W 093°59'0 0.0
2018-Feb-18 22:31N 29°49' W 093°59'0 0.1
2018-Feb-18 22:00N 29°49' W 093°59'0 0.0
2018-Feb-18 21:30N 29°49' W 093°59'3 5.1
2018-Feb-18 21:00N 29°47' W 094°01'3 5.3
2018-Feb-18 20:30N 29°46' W 094°03'3 5.7
2018-Feb-18 20:00N 29°44' W 094°06'3 5.5
2018-Feb-18 19:31N 29°42' W 094°08'3 5.2
2018-Feb-18 19:00N 29°41' W 094°11'2 3.6
2018-Feb-18 18:30N 29°40' W 094°13'0 0.5
2018-Feb-18 18:00N 29°40' W 094°13'0 0.0
2018-Feb-18 17:31N 29°40' W 094°13'0 0.4
2018-Feb-18 17:00N 29°40' W 094°14'0 0.0
2018-Feb-18 16:30N 29°40' W 094°14'0 0.0
2018-Feb-18 16:00N 29°40' W 094°14'0 0.0
2018-Feb-18 15:30N 29°40' W 094°14'0 0.0
2018-Feb-18 15:01N 29°40' W 094°14'0 0.0
2018-Feb-18 14:30N 29°40' W 094°14'0 0.0
2018-Feb-18 14:00N 29°40' W 094°14'0 0.0
2018-Feb-18 13:27N 29°40' W 094°14'0 0.0
2018-Feb-18 13:00N 29°40' W 094°14'0 0.0
2018-Feb-18 12:30N 29°40' W 094°14'0 0.0
2018-Feb-18 11:59N 29°40' W 094°14'0 0.0
2018-Feb-18 11:31N 29°40' W 094°14'0 0.0
2018-Feb-18 11:00N 29°40' W 094°14'0 0.0
2018-Feb-18 10:30N 29°40' W 094°14'0 0.0
2018-Feb-18 09:59N 29°40' W 094°14'0 0.0
2018-Feb-18 09:24N 29°40' W 094°14'0 0.1
2018-Feb-18 09:00N 29°40' W 094°14'0 0.0
2018-Feb-18 08:29N 29°40' W 094°14'0 0.0
2018-Feb-18 07:57N 29°40' W 094°14'0 0.0
2018-Feb-18 07:30N 29°40' W 094°14'0 0.0
2018-Feb-18 07:00N 29°40' W 094°14'1 1.5
2018-Feb-18 06:30N 29°40' W 094°14'1 1.7
2018-Feb-18 06:00N 29°39' W 094°15'1 2.7
2018-Feb-18 05:30N 29°39' W 094°17'4 1.5
2018-Feb-18 02:51N 29°37' W 094°21'0 0.0
2018-Feb-18 02:26N 29°37' W 094°21'0 0.0
2018-Feb-18 01:49N 29°37' W 094°21'0 0.0
2018-Feb-18 01:23N 29°37' W 094°21'0 0.0
2018-Feb-18 00:59N 29°37' W 094°21'0 0.0
2018-Feb-18 00:22N 29°37' W 094°21'1 1.6
2018-Feb-17 23:45N 29°36' W 094°22'2 3.6
2018-Feb-17 23:17N 29°36' W 094°23'1 3.6
2018-Feb-17 22:57N 29°36' W 094°25'2 4.0
2018-Feb-17 22:22N 29°34' W 094°26'19 1.8
2018-Feb-17 11:53N 29°24' W 094°45'0 0.0
2018-Feb-17 09:41N 29°24' W 094°45'0 0.0
2018-Feb-17 09:29N 29°24' W 094°45'0 0.0
2018-Feb-17 08:39N 29°24' W 094°45'0 0.0
2018-Feb-17 08:23N 29°24' W 094°45'0 0.0
2018-Feb-17 05:56N 29°24' W 094°45'0 0.0
2018-Feb-17 04:36N 29°24' W 094°45'0 0.1
2018-Feb-17 04:30N 29°24' W 094°45'0 0.0
2018-Feb-17 03:59N 29°24' W 094°45'0 0.2
2018-Feb-17 03:30N 29°24' W 094°45'0 0.0
2018-Feb-17 02:56N 29°24' W 094°45'0 0.0
2018-Feb-17 02:22N 29°24' W 094°45'0 0.0
2018-Feb-17 02:01N 29°24' W 094°45'0 0.0
2018-Feb-17 01:30N 29°24' W 094°45'0 0.1
2018-Feb-17 00:52N 29°24' W 094°45'0 0.0
2018-Feb-17 00:08N 29°24' W 094°45'3 3.2
2018-Feb-16 23:05N 29°22' W 094°48'0 3.9
2018-Feb-16 23:00N 29°23' W 094°48'4 3.7
2018-Feb-16 21:49N 29°26' W 094°50'1 2.4
2018-Feb-16 21:25N 29°27' W 094°51'2 4.7
2018-Feb-16 20:59N 29°29' W 094°52'3 5.7
2018-Feb-16 20:30N 29°32' W 094°53'4 7.3
2018-Feb-16 20:00N 29°35' W 094°56'4 7.7
2018-Feb-16 19:30N 29°38' W 094°58'4 8.1
2018-Feb-16 19:00N 29°42' W 094°60'3 6.8
2018-Feb-16 18:30N 29°44' W 095°03'3 6.2
2018-Feb-16 18:00N 29°46' W 095°05'1 2.3
2018-Feb-16 17:26N 29°47' W 095°04'0 0.2
2018-Feb-16 16:43N 29°47' W 095°04'0 1.5
2018-Feb-16 16:29N 29°47' W 095°04'0 0.0
2018-Feb-16 15:59N 29°47' W 095°04'0 0.0
2018-Feb-16 15:28N 29°47' W 095°04'0 0.0
2018-Feb-16 14:55N 29°47' W 095°04'0 0.0
2018-Feb-16 13:56N 29°47' W 095°04'0 0.0
2018-Feb-16 11:11N 29°47' W 095°04'0 0.0
2018-Feb-16 10:53N 29°47' W 095°04'0 0.0
2018-Feb-16 09:59N 29°47' W 095°04'0 0.0
2018-Feb-16 09:30N 29°47' W 095°04'0 0.0
2018-Feb-16 07:41N 29°47' W 095°04'0 0.0
2018-Feb-16 07:21N 29°47' W 095°04'0 0.0
2018-Feb-16 06:59N 29°47' W 095°04'0 0.3
2018-Feb-16 05:33N 29°47' W 095°04'0 0.0
2018-Feb-16 05:25N 29°47' W 095°04'0 0.0
2018-Feb-16 04:55N 29°47' W 095°04'0 0.0
2018-Feb-16 04:31N 29°47' W 095°04'0 0.4
2018-Feb-16 04:00N 29°47' W 095°04'0 0.1
2018-Feb-16 03:30N 29°47' W 095°04'0 0.1
2018-Feb-16 02:55N 29°47' W 095°04'0 0.3
2018-Feb-16 02:23N 29°47' W 095°04'0 0.3
2018-Feb-16 01:56N 29°47' W 095°04'  
Track history (hours):
 
Tides and Currents Weather Stations Pressure Air Temp Water Temp Dewpoint Dewpoint Depression Visibility Wind Speed Wind Dir Waves Ship Positions

Caroline

Owner: Canal Barge Company, Inc., Belle Chasse, LA. More information available from US FCC via Universal Licensing System and Coast Guard Vessel Documentation Center.

Last reported at 2018-Feb-25 20:35 UTC. Time now 2018-Feb-26 01:58 UTC.
Position N 29°22' W 094°48'.

Length 25 m.

Type: Towing. MMSI: 367456750.

Date/timePositionNaut miles runAvg speedWind from/ knotsBaromVisibWave heightAir tempDewpointWater temp
2018-Feb-25 20:35N 29°22' W 094°48'4 3.7
2018-Feb-25 19:23N 29°26' W 094°50'2 4.8
2018-Feb-25 19:00N 29°28' W 094°51'2 5.0
2018-Feb-25 18:30N 29°30' W 094°53'3 5.2
2018-Feb-25 18:00N 29°32' W 094°54'3 5.5
2018-Feb-25 17:30N 29°35' W 094°56'3 5.6
2018-Feb-25 17:00N 29°37' W 094°58'3 6.0
2018-Feb-25 16:30N 29°40' W 094°59'3 5.7
2018-Feb-25 16:00N 29°42' W 095°01'2 4.8
2018-Feb-25 15:30N 29°44' W 095°03'0 0.6
2018-Feb-25 15:00N 29°44' W 095°03'0 0.0
2018-Feb-25 10:29N 29°44' W 095°03'1 2.2
2018-Feb-25 09:54N 29°44' W 095°02'2 4.0
2018-Feb-25 09:30N 29°42' W 095°01'1 2.2
2018-Feb-25 08:59N 29°42' W 095°03'0 0.1
2018-Feb-25 08:30N 29°42' W 095°03'0 0.0
2018-Feb-25 08:00N 29°42' W 095°03'0 0.4
2018-Feb-25 07:30N 29°43' W 095°03'2 4.3
2018-Feb-25 07:00N 29°42' W 095°00'3 5.5
2018-Feb-25 06:30N 29°40' W 094°58'3 5.6
2018-Feb-25 06:00N 29°37' W 094°57'3 6.0
2018-Feb-25 05:30N 29°35' W 094°56'3 6.2
2018-Feb-25 05:00N 29°32' W 094°54'9 0.3
2018-Feb-23 22:12N 29°23' W 094°53'0 0.0
2018-Feb-23 18:48N 29°23' W 094°53'0 0.0
2018-Feb-23 18:27N 29°23' W 094°53'0 0.0
2018-Feb-23 17:55N 29°23' W 094°53'0 0.0
2018-Feb-23 11:35N 29°23' W 094°53'0 0.0
2018-Feb-23 11:14N 29°23' W 094°53'0 0.0
2018-Feb-23 10:58N 29°23' W 094°53'0 0.0
2018-Feb-23 10:30N 29°23' W 094°53'0 0.0
2018-Feb-23 10:00N 29°23' W 094°53'0 0.0
2018-Feb-23 09:24N 29°23' W 094°53'0 0.0
2018-Feb-23 08:52N 29°23' W 094°53'0 0.0
2018-Feb-23 07:32N 29°23' W 094°53'0 0.0
2018-Feb-23 07:12N 29°23' W 094°53'0 0.0
2018-Feb-23 06:56N 29°23' W 094°53'0 0.0
2018-Feb-23 04:56N 29°23' W 094°53'22 0.6
2018-Feb-21 16:37N 29°31' W 094°31'1 3.9
2018-Feb-21 16:25N 29°31' W 094°30'1 3.4
2018-Feb-21 16:00N 29°32' W 094°29'0 0.0
2018-Feb-21 15:25N 29°32' W 094°29'1 1.0
2018-Feb-21 14:50N 29°33' W 094°28'1 3.6
2018-Feb-21 14:26N 29°34' W 094°27'2 3.2
2018-Feb-21 13:56N 29°34' W 094°25'2 3.7
2018-Feb-21 13:30N 29°36' W 094°25'2 2.9
2018-Feb-21 12:58N 29°36' W 094°23'1 3.0
2018-Feb-21 12:30N 29°36' W 094°22'0 0.0
2018-Feb-21 12:00N 29°36' W 094°22'0 0.0
2018-Feb-21 11:28N 29°36' W 094°22'0 0.0
2018-Feb-21 11:00N 29°36' W 094°22'0 0.0
2018-Feb-21 10:30N 29°36' W 094°22'0 0.0
2018-Feb-21 09:58N 29°36' W 094°22'0 0.0
2018-Feb-21 09:28N 29°36' W 094°22'0 0.0
2018-Feb-21 08:54N 29°36' W 094°22'0 0.0
2018-Feb-21 08:30N 29°36' W 094°22'0 0.0
2018-Feb-21 08:00N 29°36' W 094°22'0 0.0
2018-Feb-21 07:30N 29°36' W 094°22'0 0.0
2018-Feb-21 06:59N 29°36' W 094°22'0 0.0
2018-Feb-21 06:30N 29°36' W 094°22'0 0.0
2018-Feb-21 05:59N 29°36' W 094°22'0 0.5
2018-Feb-21 05:25N 29°37' W 094°22'1 3.0
2018-Feb-21 04:58N 29°37' W 094°20'2 3.5
2018-Feb-21 04:30N 29°38' W 094°19'2 3.9
2018-Feb-21 04:00N 29°39' W 094°17'2 3.6
2018-Feb-21 03:31N 29°40' W 094°15'2 3.7
2018-Feb-21 03:00N 29°41' W 094°13'2 3.6
2018-Feb-21 02:31N 29°41' W 094°11'1 1.9
2018-Feb-21 02:00N 29°41' W 094°10'2 4.6
2018-Feb-21 01:30N 29°43' W 094°08'2 4.6
2018-Feb-21 01:00N 29°44' W 094°06'2 4.8
2018-Feb-21 00:31N 29°46' W 094°03'2 4.9
2018-Feb-21 00:00N 29°47' W 094°01'2 4.3
2018-Feb-20 23:31N 29°49' W 093°60'2 4.3
2018-Feb-20 23:01N 29°50' W 093°57'3 5.4
2018-Feb-20 22:30N 29°52' W 093°56'3 5.4
2018-Feb-20 22:00N 29°54' W 093°54'3 6.1
2018-Feb-20 21:30N 29°57' W 093°52'2 4.5
2018-Feb-20 21:00N 29°59' W 093°52'4 7.3
2018-Feb-20 20:30N 29°60' W 093°57'2 4.6
2018-Feb-20 20:01N 30°01' W 093°59'3 5.9
2018-Feb-20 19:31N 30°02' W 094°02'1 1.8
2018-Feb-20 19:01N 30°03' W 094°02'0 0.4
2018-Feb-20 18:30N 30°03' W 094°02'2 3.6
2018-Feb-20 18:00N 30°04' W 094°03'1 1.9
2018-Feb-20 17:30N 30°05' W 094°04'0 0.0
2018-Feb-20 17:01N 30°05' W 094°04'0 0.0
2018-Feb-20 16:30N 30°05' W 094°04'0 0.0
2018-Feb-20 16:00N 30°05' W 094°04'0 0.0
2018-Feb-20 15:31N 30°05' W 094°04'0 0.0
2018-Feb-20 15:00N 30°05' W 094°04'0 0.0
2018-Feb-20 14:31N 30°05' W 094°04'0 0.0
2018-Feb-20 14:00N 30°05' W 094°04'0 0.0
2018-Feb-20 13:31N 30°05' W 094°04'0 0.0
2018-Feb-20 13:00N 30°05' W 094°04'0 0.0
2018-Feb-20 12:29N 30°05' W 094°04'0 0.0
2018-Feb-20 12:00N 30°05' W 094°04'0 0.0
2018-Feb-20 11:30N 30°05' W 094°04'0 0.0
2018-Feb-20 11:00N 30°05' W 094°04'0 0.0
2018-Feb-20 10:30N 30°05' W 094°04'0 0.0
2018-Feb-20 10:00N 30°05' W 094°04'0 0.0
2018-Feb-20 09:31N 30°05' W 094°04'0 0.0
2018-Feb-20 09:01N 30°05' W 094°04'0 0.0
2018-Feb-20 08:30N 30°05' W 094°04'0 0.0
2018-Feb-20 08:00N 30°05' W 094°04'0 0.0
2018-Feb-20 07:30N 30°05' W 094°04'0 0.0
2018-Feb-20 07:01N 30°05' W 094°04'0 0.0
2018-Feb-20 06:31N 30°05' W 094°04'0 0.0
2018-Feb-20 06:00N 30°05' W 094°04'0 0.0
2018-Feb-20 05:30N 30°05' W 094°04'0 0.0
2018-Feb-20 05:01N 30°05' W 094°04'0 0.0
2018-Feb-20 04:30N 30°05' W 094°04'0 0.0
2018-Feb-20 04:01N 30°05' W 094°04'0 0.0
2018-Feb-20 03:31N 30°05' W 094°04'0 0.0
2018-Feb-20 03:01N 30°05' W 094°04'0 0.0
2018-Feb-20 02:30N 30°05' W 094°04'0 0.0
2018-Feb-20 02:01N 30°05' W 094°04'0 0.0
2018-Feb-20 01:31N 30°05' W 094°04'0 0.0
2018-Feb-20 01:00N 30°05' W 094°04'0 0.0
2018-Feb-20 00:30N 30°05' W 094°04'0 0.0
2018-Feb-20 00:01N 30°05' W 094°04'1 1.6
2018-Feb-19 23:30N 30°04' W 094°03'1 1.4
2018-Feb-19 23:00N 30°04' W 094°03'0 0.0
2018-Feb-19 22:30N 30°04' W 094°03'1 2.2
2018-Feb-19 21:59N 30°05' W 094°04'0 0.0
2018-Feb-19 21:31N 30°05' W 094°04'0 0.0
2018-Feb-19 21:00N 30°05' W 094°04'0 0.0
2018-Feb-19 20:30N 30°05' W 094°04'0 0.0
2018-Feb-19 20:00N 30°05' W 094°04'0 0.0
2018-Feb-19 19:30N 30°05' W 094°04'0 0.0
2018-Feb-19 19:00N 30°05' W 094°04'0 0.0
2018-Feb-19 18:31N 30°05' W 094°04'0 0.1
2018-Feb-19 18:01N 30°05' W 094°04'0 0.1
2018-Feb-19 17:30N 30°05' W 094°04'2 4.0
2018-Feb-19 17:01N 30°04' W 094°02'3 5.4
2018-Feb-19 16:30N 30°01' W 094°01'3 5.8
2018-Feb-19 16:01N 30°01' W 093°58'3 5.6
2018-Feb-19 15:30N 29°59' W 093°55'3 6.5
2018-Feb-19 15:00N 29°59' W 093°52'2 5.0
2018-Feb-19 14:31N 29°56' W 093°52'3 6.1
2018-Feb-19 14:00N 29°54' W 093°54'3 6.0
2018-Feb-19 13:30N 29°51' W 093°57'2 4.7
2018-Feb-19 13:00N 29°49' W 093°58'1 2.0
2018-Feb-19 12:30N 29°49' W 093°59'0 0.2
2018-Feb-19 12:01N 29°49' W 093°59'0 0.0
2018-Feb-19 11:30N 29°49' W 093°59'0 0.0
2018-Feb-19 11:00N 29°49' W 093°59'0 0.0
2018-Feb-19 10:30N 29°49' W 093°59'0 0.0
2018-Feb-19 10:00N 29°49' W 093°59'0 0.0
2018-Feb-19 09:29N 29°49' W 093°59'0 0.0
2018-Feb-19 09:00N 29°49' W 093°59'0 0.0
2018-Feb-19 08:30N 29°49' W 093°59'0 0.0
2018-Feb-19 08:00N 29°49' W 093°59'0 0.0
2018-Feb-19 07:30N 29°49' W 093°59'0 0.0
2018-Feb-19 07:00N 29°49' W 093°59'0 0.0
2018-Feb-19 06:30N 29°49' W 093°59'0 0.0
2018-Feb-19 06:01N 29°49' W 093°59'0 0.0
2018-Feb-19 05:30N 29°49' W 093°59'0 0.0
2018-Feb-19 05:00N 29°49' W 093°59'0 0.0
2018-Feb-19 04:30N 29°49' W 093°59'0 0.0
2018-Feb-19 03:59N 29°49' W 093°59'0 0.0
2018-Feb-19 03:30N 29°49' W 093°59'0 0.0
2018-Feb-19 03:01N 29°49' W 093°59'0 0.0
2018-Feb-19 02:29N 29°49' W 093°59'0 0.0
2018-Feb-19 02:00N 29°49' W 093°59'0 0.0
2018-Feb-19 01:30N 29°49' W 093°59'0 0.0
2018-Feb-19 01:00N 29°49' W 093°59'0 0.0
2018-Feb-19 00:30N 29°49' W 093°59'0 0.0
2018-Feb-19 00:00N 29°49' W 093°59'0 0.0
2018-Feb-18 23:30N 29°49' W 093°59'0 0.0
2018-Feb-18 23:00N 29°49' W 093°59'0 0.0
2018-Feb-18 22:31N 29°49' W 093°59'0 0.1
2018-Feb-18 22:00N 29°49' W 093°59'0 0.0
2018-Feb-18 21:30N 29°49' W 093°59'3 5.1
2018-Feb-18 21:00N 29°47' W 094°01'3 5.3
2018-Feb-18 20:30N 29°46' W 094°03'3 5.7
2018-Feb-18 20:00N 29°44' W 094°06'3 5.5
2018-Feb-18 19:31N 29°42' W 094°08'3 5.2
2018-Feb-18 19:00N 29°41' W 094°11'2 3.6
2018-Feb-18 18:30N 29°40' W 094°13'0 0.5
2018-Feb-18 18:00N 29°40' W 094°13'0 0.0
2018-Feb-18 17:31N 29°40' W 094°13'0 0.4
2018-Feb-18 17:00N 29°40' W 094°14'0 0.0
2018-Feb-18 16:30N 29°40' W 094°14'0 0.0
2018-Feb-18 16:00N 29°40' W 094°14'0 0.0
2018-Feb-18 15:30N 29°40' W 094°14'0 0.0
2018-Feb-18 15:01N 29°40' W 094°14'0 0.0
2018-Feb-18 14:30N 29°40' W 094°14'0 0.0
2018-Feb-18 14:00N 29°40' W 094°14'0 0.0
2018-Feb-18 13:27N 29°40' W 094°14'0 0.0
2018-Feb-18 13:00N 29°40' W 094°14'0 0.0
2018-Feb-18 12:30N 29°40' W 094°14'0 0.0
2018-Feb-18 11:59N 29°40' W 094°14'0 0.0
2018-Feb-18 11:31N 29°40' W 094°14'0 0.0
2018-Feb-18 11:00N 29°40' W 094°14'0 0.0
2018-Feb-18 10:30N 29°40' W 094°14'0 0.0
2018-Feb-18 09:59N 29°40' W 094°14'0 0.0
2018-Feb-18 09:24N 29°40' W 094°14'0 0.1
2018-Feb-18 09:00N 29°40' W 094°14'0 0.0
2018-Feb-18 08:29N 29°40' W 094°14'0 0.0
2018-Feb-18 07:57N 29°40' W 094°14'0 0.0
2018-Feb-18 07:30N 29°40' W 094°14'0 0.0
2018-Feb-18 07:00N 29°40' W 094°14'1 1.5
2018-Feb-18 06:30N 29°40' W 094°14'1 1.7
2018-Feb-18 06:00N 29°39' W 094°15'1 2.7
2018-Feb-18 05:30N 29°39' W 094°17'4 1.5
2018-Feb-18 02:51N 29°37' W 094°21'0 0.0
2018-Feb-18 02:26N 29°37' W 094°21'0 0.0
2018-Feb-18 01:49N 29°37' W 094°21'0 0.0
2018-Feb-18 01:23N 29°37' W 094°21'0 0.0
2018-Feb-18 00:59N 29°37' W 094°21'0 0.0
2018-Feb-18 00:22N 29°37' W 094°21'1 1.6
2018-Feb-17 23:45N 29°36' W 094°22'2 3.6
2018-Feb-17 23:17N 29°36' W 094°23'1 3.6
2018-Feb-17 22:57N 29°36' W 094°25'2 4.0
2018-Feb-17 22:22N 29°34' W 094°26'19 1.8
2018-Feb-17 11:53N 29°24' W 094°45'0 0.0
2018-Feb-17 09:41N 29°24' W 094°45'0 0.0
2018-Feb-17 09:29N 29°24' W 094°45'0 0.0
2018-Feb-17 08:39N 29°24' W 094°45'0 0.0
2018-Feb-17 08:23N 29°24' W 094°45'0 0.0
2018-Feb-17 05:56N 29°24' W 094°45'0 0.0
2018-Feb-17 04:36N 29°24' W 094°45'0 0.1
2018-Feb-17 04:30N 29°24' W 094°45'0 0.0
2018-Feb-17 03:59N 29°24' W 094°45'0 0.2
2018-Feb-17 03:30N 29°24' W 094°45'0 0.0
2018-Feb-17 02:56N 29°24' W 094°45'0 0.0
2018-Feb-17 02:22N 29°24' W 094°45'0 0.0
2018-Feb-17 02:01N 29°24' W 094°45'0 0.0
2018-Feb-17 01:30N 29°24' W 094°45'0 0.1
2018-Feb-17 00:52N 29°24' W 094°45'0 0.0
2018-Feb-17 00:08N 29°24' W 094°45'3 3.2
2018-Feb-16 23:05N 29°22' W 094°48'0 3.9
2018-Feb-16 23:00N 29°23' W 094°48'4 3.7
2018-Feb-16 21:49N 29°26' W 094°50'1 2.4
2018-Feb-16 21:25N 29°27' W 094°51'2 4.7
2018-Feb-16 20:59N 29°29' W 094°52'3 5.7
2018-Feb-16 20:30N 29°32' W 094°53'4 7.3
2018-Feb-16 20:00N 29°35' W 094°56'4 7.7
2018-Feb-16 19:30N 29°38' W 094°58'4 8.1
2018-Feb-16 19:00N 29°42' W 094°60'3 6.8
2018-Feb-16 18:30N 29°44' W 095°03'3 6.2
2018-Feb-16 18:00N 29°46' W 095°05'1 2.3
2018-Feb-16 17:26N 29°47' W 095°04'0 0.2
2018-Feb-16 16:43N 29°47' W 095°04'0 1.5
2018-Feb-16 16:29N 29°47' W 095°04'0 0.0
2018-Feb-16 15:59N 29°47' W 095°04'0 0.0
2018-Feb-16 15:28N 29°47' W 095°04'0 0.0
2018-Feb-16 14:55N 29°47' W 095°04'0 0.0
2018-Feb-16 13:56N 29°47' W 095°04'0 0.0
2018-Feb-16 11:11N 29°47' W 095°04'0 0.0
2018-Feb-16 10:53N 29°47' W 095°04'0 0.0
2018-Feb-16 09:59N 29°47' W 095°04'0 0.0
2018-Feb-16 09:30N 29°47' W 095°04'0 0.0
2018-Feb-16 07:41N 29°47' W 095°04'0 0.0
2018-Feb-16 07:21N 29°47' W 095°04'0 0.0
2018-Feb-16 06:59N 29°47' W 095°04'0 0.3
2018-Feb-16 05:33N 29°47' W 095°04'0 0.0
2018-Feb-16 05:25N 29°47' W 095°04'0 0.0
2018-Feb-16 04:55N 29°47' W 095°04'0 0.0
2018-Feb-16 04:31N 29°47' W 095°04'0 0.4
2018-Feb-16 04:00N 29°47' W 095°04'0 0.1
2018-Feb-16 03:30N 29°47' W 095°04'0 0.1
2018-Feb-16 02:55N 29°47' W 095°04'0 0.3
2018-Feb-16 02:23N 29°47' W 095°04'0 0.3
2018-Feb-16 01:56N 29°47' W 095°04'  

Dump ship's entire track history